Time;durP1;ratioP1;P1;durP2;ratioP2;P2;SDS_P1;SDS_P2;PMS_P1;PMS_P2;Temp;Humidity;BMP_temperature;BMP_pressure;BME280_temperature;BME280_humidity;BME280_pressure;Samples;Min_cycle;Max_cycle;Signal;HPM_P1;HPM_P2
2024/04/10 00:00:59;;;;;;;4.72;4.22;;;;;;;11.56;100.00;100550.63;5445873;26;20018;-71
2024/04/10 00:03:28;;;;;;;5.55;4.30;;;;;;;11.99;100.00;100648.16;5431519;26;20043;-71
2024/04/10 00:06:04;;;;;;;7.32;4.00;;;;;;;11.47;100.00;100459.19;5425604;26;20007;-71
2024/04/10 00:08:32;;;;;;;6.45;4.20;;;;;;;12.18;100.00;100631.56;5422641;26;20015;-72
2024/04/10 00:10:57;;;;;;;4.68;3.95;;;;;;;11.39;100.00;100540.81;5418628;26;20076;-71
2024/04/10 00:13:23;;;;;;;4.53;3.80;;;;;;;12.06;100.00;100626.75;5426687;26;20011;-70
2024/04/10 00:16:02;;;;;;;6.93;3.75;;;;;;;12.18;100.00;100603.53;5435657;26;20018;-70
2024/04/10 00:18:28;;;;;;;9.35;3.97;;;;;;;11.69;100.00;100552.03;5429945;26;20086;-71
2024/04/10 00:20:54;;;;;;;6.75;3.63;;;;;;;11.94;100.00;100550.59;5432759;26;20026;-70
2024/04/10 00:23:20;;;;;;;5.38;3.90;;;;;;;12.21;100.00;100606.00;5437312;26;20011;-70
2024/04/10 00:25:59;;;;;;;5.32;3.58;;;;;;;12.26;100.00;100548.06;5423907;26;20014;-71
2024/04/10 00:28:30;;;;;;;5.95;3.70;;;;;;;11.84;100.00;100611.13;5434299;26;20435;-70
2024/04/10 00:30:56;;;;;;;8.80;3.60;;;;;;;11.72;100.00;100545.19;5431241;26;20007;-71
2024/04/10 00:33:22;;;;;;;8.63;3.80;;;;;;;12.15;100.00;100604.44;5435240;26;20018;-70
2024/04/10 00:35:57;;;;;;;6.25;4.10;;;;;;;11.46;100.00;100521.16;5433401;26;20075;-70
2024/04/10 00:38:25;;;;;;;5.68;4.47;;;;;;;12.03;100.00;100621.72;5439717;26;20013;-71
2024/04/10 00:41:00;;;;;;;4.88;4.28;;;;;;;10.93;100.00;100560.47;5428872;26;20014;-71
2024/04/10 00:43:27;;;;;;;6.43;4.60;;;;;;;11.36;100.00;100645.25;5430507;26;20013;-71
2024/04/10 00:46:14;;;;;;;6.28;4.22;;;;;;;11.55;100.00;100613.44;5428267;26;20443;-71
2024/04/10 00:48:40;;;;;;;6.22;4.53;;;;;;;11.18;100.00;100681.25;5436003;26;19995;-70
2024/04/10 00:51:16;;;;;;;6.10;4.50;;;;;;;11.22;100.00;100637.91;5421349;26;20003;-73
2024/04/10 00:53:42;;;;;;;5.80;4.50;;;;;;;11.09;100.00;100608.47;5425744;26;20014;-71
2024/04/10 00:56:08;;;;;;;6.25;4.60;;;;;;;10.83;100.00;100628.50;5435730;26;20010;-70
2024/04/10 00:58:34;;;;;;;8.63;4.40;;;;;;;11.02;100.00;100575.56;5427738;26;20007;-70
2024/04/10 01:01:00;;;;;;;7.25;4.80;;;;;;;10.63;100.00;100502.59;5421579;26;20473;-71
2024/04/10 01:03:27;;;;;;;5.55;4.32;;;;;;;11.55;100.00;100543.88;5435729;26;19999;-71
2024/04/10 01:06:02;;;;;;;6.10;4.45;;;;;;;10.75;100.00;100479.47;5425221;26;20018;-71
2024/04/10 01:08:29;;;;;;;5.85;4.15;;;;;;;10.37;100.00;100529.34;5427264;26;20018;-71
2024/04/10 01:10:55;;;;;;;7.40;5.72;;;;;;;10.67;100.00;100494.03;5427217;26;20343;-71
2024/04/10 01:13:20;;;;;;;13.18;5.65;;;;;;;10.77;100.00;100528.59;5427358;26;20024;-71
2024/04/10 01:15:46;;;;;;;6.72;5.20;;;;;;;10.42;100.00;100532.63;5428863;26;20319;-71
2024/04/10 01:18:11;;;;;;;6.97;4.90;;;;;;;10.89;100.00;100495.28;5427463;26;20007;-70
2024/04/10 01:20:37;;;;;;;7.03;5.25;;;;;;;10.40;100.00;100402.22;5431357;26;20357;-70
2024/04/10 01:23:06;;;;;;;7.60;4.80;;;;;;;10.53;100.00;100494.31;5426845;26;20319;-72
2024/04/10 01:25:32;;;;;;;5.95;4.40;;;;;;;11.03;100.00;100466.09;5438542;26;22358;-71
2024/04/10 01:27:57;;;;;;;6.07;4.40;;;;;;;11.05;100.00;100458.47;5423724;26;20004;-71
2024/04/10 01:30:23;;;;;;;6.85;4.07;;;;;;;10.39;100.00;100385.31;5435655;26;20029;-71
2024/04/10 01:32:49;;;;;;;6.75;4.18;;;;;;;10.94;100.00;100447.66;5422293;26;20017;-71
2024/04/10 01:35:14;;;;;;;7.35;3.80;;;;;;;10.81;100.00;100494.59;5426124;26;20014;-71
2024/04/10 01:37:40;;;;;;;5.10;3.90;;;;;;;11.26;100.00;100453.72;5426905;26;20352;-71
2024/04/10 01:40:06;;;;;;;4.50;3.70;;;;;;;10.88;100.00;100402.03;5425614;26;20010;-70
2024/04/10 01:42:32;;;;;;;6.05;3.90;;;;;;;11.38;100.00;100456.84;5423945;26;19999;-73
2024/04/10 01:44:58;;;;;;;4.90;3.33;;;;;;;10.53;100.00;100407.88;5432032;26;20319;-73
2024/04/10 01:47:23;;;;;;;6.18;3.90;;;;;;;11.34;100.00;100438.28;5432107;26;20005;-74
2024/04/10 01:49:50;;;;;;;5.07;3.78;;;;;;;10.89;100.00;100370.66;5430725;26;20472;-72
2024/04/10 01:52:15;;;;;;;4.25;3.60;;;;;;;10.92;100.00;100446.88;5423451;26;20017;-73
2024/04/10 01:54:41;;;;;;;5.80;4.38;;;;;;;10.93;100.00;100449.41;5423971;26;20007;-72
2024/04/10 01:57:06;;;;;;;6.63;4.18;;;;;;;10.64;100.00;100339.84;5439550;26;20009;-72
2024/04/10 01:59:31;;;;;;;5.47;4.03;;;;;;;10.96;100.00;100362.84;5427034;26;19999;-72
2024/04/10 02:01:57;;;;;;;4.88;4.10;;;;;;;11.28;100.00;100438.41;5432257;26;20342;-72
2024/04/10 02:04:22;;;;;;;8.43;4.85;;;;;;;10.98;100.00;100442.50;5422048;26;20457;-72
2024/04/10 02:06:48;;;;;;;8.45;5.30;;;;;;;11.01;100.00;100427.16;5436716;26;20435;-73
2024/04/10 02:09:14;;;;;;;7.65;5.53;;;;;;;11.07;100.00;100418.56;5433807;26;20009;-72
2024/04/10 02:11:40;;;;;;;9.00;5.15;;;;;;;10.99;100.00;100422.97;5429255;26;20014;-71
2024/04/10 02:14:05;;;;;;;6.32;5.00;;;;;;;10.79;100.00;100376.81;5427322;26;20446;-72
2024/04/10 02:16:31;;;;;;;7.20;5.20;;;;;;;10.57;100.00;100426.44;5432280;26;20039;-74
2024/04/10 02:18:57;;;;;;;7.70;5.53;;;;;;;10.58;100.00;100382.38;5421896;26;20084;-71
2024/04/10 02:21:24;;;;;;;6.60;5.15;;;;;;;9.88;100.00;100315.19;5421091;26;20031;-73
2024/04/10 02:23:50;;;;;;;10.52;5.45;;;;;;;10.78;100.00;100368.34;5433609;26;20039;-73
2024/04/10 02:26:17;;;;;;;11.15;6.00;;;;;;;9.86;100.00;100347.41;5435919;26;20003;-73
2024/04/10 02:28:43;;;;;;;7.97;5.40;;;;;;;10.18;100.00;100374.75;5427127;26;20007;-71
2024/04/10 02:31:09;;;;;;;7.82;6.03;;;;;;;9.46;100.00;100332.06;5429059;26;19999;-73
2024/04/10 02:33:38;;;;;;;6.55;5.50;;;;;;;9.19;100.00;100294.47;5433368;26;20122;-71
2024/04/10 02:36:05;;;;;;;5.00;4.50;;;;;;;9.21;100.00;100399.28;5425928;26;20311;-73
2024/04/10 02:38:31;;;;;;;6.78;4.75;;;;;;;8.92;100.00;100368.47;5425135;26;20010;-72
2024/04/10 02:40:57;;;;;;;5.55;4.88;;;;;;;9.30;100.00;100292.59;5423857;26;20450;-72
2024/04/10 02:43:22;;;;;;;7.15;5.18;;;;;;;8.77;100.00;100261.41;5428812;26;20026;-72
2024/04/10 02:46:07;;;;;;;6.10;5.40;;;;;;;9.05;100.00;100277.84;5430554;26;20321;-72
2024/04/10 02:48:33;;;;;;;7.85;5.82;;;;;;;7.78;100.00;100132.91;5421027;26;20008;-72
2024/04/10 02:50:59;;;;;;;12.38;5.85;;;;;;;8.72;100.00;100191.34;5426836;26;20021;-76
2024/04/10 02:53:25;;;;;;;6.00;5.40;;;;;;;8.15;100.00;100225.16;5422065;26;20460;-76
2024/04/10 02:55:52;;;;;;;6.57;5.85;;;;;;;8.84;100.00;100137.06;5423739;26;20110;-76
2024/04/10 02:58:17;;;;;;;6.35;5.63;;;;;;;7.44;100.00;100000.16;5430544;26;20450;-77
2024/04/10 03:00:45;;;;;;;6.22;5.40;;;;;;;8.77;100.00;100126.19;5425993;26;20109;-76
2024/04/10 03:03:12;;;;;;;7.18;5.60;;;;;;;8.04;100.00;99993.28;5428080;26;19999;-77
2024/04/10 03:05:39;;;;;;;8.27;5.70;;;;;;;8.75;100.00;100115.25;5426785;26;20000;-77
2024/04/10 03:08:05;;;;;;;7.78;5.85;;;;;;;9.01;100.00;100081.81;5427690;26;20019;-77
2024/04/10 03:10:30;;;;;;;10.30;5.60;;;;;;;8.79;100.00;100027.34;5437895;26;20026;-80
2024/04/10 03:12:56;;;;;;;8.20;5.72;;;;;;;9.18;100.00;100066.25;5428561;26;20113;-78
2024/04/10 03:15:21;;;;;;;8.52;6.15;;;;;;;8.93;100.00;99984.81;5426108;26;19999;-76
2024/04/10 03:17:47;;;;;;;8.55;6.28;;;;;;;9.09;100.00;100063.91;5437807;26;20333;-74
2024/04/10 03:20:15;;;;;;;6.97;6.20;;;;;;;9.14;100.00;100075.63;5421956;26;20011;-74
2024/04/10 03:22:41;;;;;;;6.50;5.90;;;;;;;9.32;100.00;100072.69;5408294;26;20381;-75
2024/04/10 03:25:06;;;;;;;10.10;6.70;;;;;;;9.06;100.00;100074.94;5420640;26;20022;-74
2024/04/10 03:27:33;;;;;;;7.72;6.38;;;;;;;9.01;100.00;100058.16;5415206;26;20338;-75
2024/04/10 03:30:00;;;;;;;10.32;7.45;;;;;;;8.81;100.00;99974.06;5419309;26;20008;-75
2024/04/10 03:32:31;;;;;;;15.63;8.57;;;;;;;9.27;100.00;99979.81;5411780;26;20025;-74
2024/04/10 03:34:57;;;;;;;15.60;8.63;;;;;;;9.10;100.00;100017.38;5411262;26;20018;-75
2024/04/10 03:37:23;;;;;;;11.90;8.02;;;;;;;9.25;100.00;99974.75;5390891;26;20706;-75
2024/04/10 03:39:49;;;;;;;11.45;7.70;;;;;;;9.46;100.00;100049.56;5421245;26;20011;-74
2024/04/10 03:42:14;;;;;;;8.23;6.75;;;;;;;8.92;100.00;99962.00;5418948;26;21665;-74
2024/04/10 03:44:40;;;;;;;11.20;7.60;;;;;;;9.51;100.00;100020.66;5414234;26;20361;-75
2024/04/10 03:47:06;;;;;;;12.55;7.47;;;;;;;9.55;100.00;100041.72;5418435;26;19998;-75
2024/04/10 03:49:31;;;;;;;12.23;6.90;;;;;;;9.65;100.00;100035.56;5416366;26;20012;-75
2024/04/10 03:51:57;;;;;;;9.85;6.78;;;;;;;9.23;100.00;99945.25;5415818;26;20523;-74
2024/04/10 03:54:22;;;;;;;16.60;7.43;;;;;;;9.61;100.00;99990.84;5411122;26;20004;-75
2024/04/10 03:56:47;;;;;;;13.32;6.80;;;;;;;9.43;100.00;100100.34;5419861;26;20019;-73
2024/04/10 03:59:13;;;;;;;14.32;8.02;;;;;;;9.37;100.00;100050.59;5417016;26;20008;-74
2024/04/10 04:01:38;;;;;;;9.40;7.05;;;;;;;9.27;100.00;100020.41;5424630;26;20019;-73
2024/04/10 04:04:04;;;;;;;11.57;8.18;;;;;;;9.04;100.00;99922.00;5423614;26;20333;-75
2024/04/10 04:06:30;;;;;;;13.43;7.70;;;;;;;9.31;100.00;99991.56;5420169;26;20014;-74
2024/04/10 04:08:55;;;;;;;12.77;7.97;;;;;;;10.18;100.00;99979.25;5416368;26;20330;-72
2024/04/10 04:11:21;;;;;;;13.13;8.57;;;;;;;9.53;100.00;100053.63;5415649;26;20069;-71
2024/04/10 04:13:46;;;;;;;14.25;7.97;;;;;;;9.31;100.00;99969.53;5413404;26;20075;-72
2024/04/10 04:16:12;;;;;;;13.00;7.60;;;;;;;10.12;100.00;100017.50;5419341;26;19999;-73
2024/04/10 04:18:38;;;;;;;13.05;7.53;;;;;;;10.17;100.00;100041.09;5424013;26;20396;-74
2024/04/10 04:21:04;;;;;;;12.80;7.22;;;;;;;9.48;100.00;99948.88;5419617;26;20006;-73
2024/04/10 04:23:29;;;;;;;10.32;7.15;;;;;;;9.35;100.00;100028.66;5420232;26;20011;-73
2024/04/10 04:25:55;;;;;;;12.48;7.97;;;;;;;9.74;100.00;100095.47;5419884;26;20077;-74
2024/04/10 04:28:21;;;;;;;10.68;8.00;;;;;;;9.28;100.00;99948.50;5417403;26;20008;-72
2024/04/10 04:30:50;;;;;;;13.40;7.60;;;;;;;9.24;100.00;100076.25;5418631;26;20011;-71
2024/04/10 04:33:18;;;;;;;13.25;6.90;;;;;;;9.79;100.00;100088.56;5423765;26;20716;-69
2024/04/10 04:35:43;;;;;;;9.07;7.10;;;;;;;9.09;100.00;100145.06;5428239;26;20018;-72
2024/04/10 04:38:09;;;;;;;9.45;7.75;;;;;;;9.14;100.00;100135.66;5421927;26;19999;-70
2024/04/10 04:40:34;;;;;;;9.05;7.03;;;;;;;8.84;100.00;100099.03;5423790;26;19991;-69
2024/04/10 04:43:07;;;;;;;10.43;7.47;;;;;;;8.89;100.00;100056.72;5419922;26;20337;-71
2024/04/10 04:45:33;;;;;;;11.60;7.05;;;;;;;8.71;100.00;99988.63;5427596;26;20014;-75
2024/04/10 04:47:58;;;;;;;14.68;7.15;;;;;;;9.75;100.00;100062.41;5432697;26;20446;-72
2024/04/10 04:50:24;;;;;;;7.57;6.32;;;;;;;8.79;100.00;100079.72;5426345;26;20081;-72
2024/04/10 04:52:50;;;;;;;8.95;5.80;;;;;;;9.18;100.00;100094.97;5434926;26;19995;-72
2024/04/10 04:55:16;;;;;;;8.35;6.45;;;;;;;9.00;100.00;99972.81;5430295;26;20011;-71
2024/04/10 04:57:41;;;;;;;11.23;6.80;;;;;;;9.53;100.00;100079.00;5433866;26;20336;-71
2024/04/10 05:00:14;;;;;;;10.60;7.43;;;;;;;9.72;100.00;100075.19;5431338;26;20000;-71
2024/04/10 05:02:43;;;;;;;13.07;8.98;;;;;;;9.40;100.00;100083.53;5504818;26;20002;-72
2024/04/10 05:05:13;;;;;;;12.30;9.43;;;;;;;9.49;100.00;100026.63;5461125;26;20013;-72
2024/04/10 05:07:40;;;;;;;11.82;9.95;;;;;;;10.07;100.00;99958.34;5470533;26;20001;-71
2024/04/10 05:10:06;;;;;;;13.02;10.68;;;;;;;10.32;100.00;99921.28;5508299;26;20384;-74
2024/04/10 05:12:32;;;;;;;13.95;10.98;;;;;;;10.72;100.00;99884.53;5506024;26;19998;-71
2024/04/10 05:14:57;;;;;;;15.68;12.15;;;;;;;10.89;100.00;99893.34;5503792;26;20009;-72
2024/04/10 05:17:23;;;;;;;14.32;12.73;;;;;;;11.09;100.00;99849.47;5475381;26;20358;-72
2024/04/10 05:19:48;;;;;;;15.48;12.43;;;;;;;11.18;100.00;99725.31;5467729;26;20016;-72
2024/04/10 05:22:14;;;;;;;17.40;13.48;;;;;;;11.48;100.00;99860.88;5464245;26;20001;-72
2024/04/10 05:24:40;;;;;;;18.45;13.40;;;;;;;11.39;100.00;99774.63;5472848;26;19997;-71
2024/04/10 05:27:08;;;;;;;18.50;12.65;;;;;;;12.55;100.00;99821.31;5504517;25;20005;-73
2024/04/10 05:29:33;;;;;;;15.73;12.45;;;;;;;12.33;100.00;99727.88;5507504;26;19997;-72
2024/04/10 05:31:58;;;;;;;14.43;11.88;;;;;;;12.66;100.00;99854.88;5473580;26;20066;-72
2024/04/10 05:34:25;;;;;;;12.85;11.25;;;;;;;12.62;100.00;99934.13;5469492;26;20293;-71
2024/04/10 05:36:51;;;;;;;17.35;12.25;;;;;;;12.88;100.00;99933.97;5475273;26;20009;-73
2024/04/10 05:39:21;;;;;;;15.75;12.05;;;;;;;12.88;100.00;99872.75;5471431;26;20040;-71
2024/04/10 05:41:47;;;;;;;16.35;11.90;;;;;;;13.78;100.00;99930.38;5521785;25;20070;-71
2024/04/10 05:44:13;;;;;;;14.32;12.13;;;;;;;13.79;100.00;99988.22;5502026;26;20002;-72
2024/04/10 05:46:38;;;;;;;15.88;11.80;;;;;;;14.06;100.00;99962.41;5509320;26;20012;-72
2024/04/10 05:49:06;;;;;;;14.68;11.60;;;;;;;14.33;100.00;99989.38;5474796;26;20442;-71
2024/04/10 05:51:32;;;;;;;17.55;12.85;;;;;;;14.34;100.00;99940.72;5476496;26;19998;-72
2024/04/10 05:53:58;;;;;;;16.95;11.70;;;;;;;14.80;100.00;99990.69;5466514;26;20327;-73
2024/04/10 05:56:23;;;;;;;14.10;11.50;;;;;;;14.58;100.00;99972.06;5471816;26;20018;-70
2024/04/10 05:58:49;;;;;;;20.67;12.43;;;;;;;14.79;100.00;100022.31;5470299;26;20014;-70
2024/04/10 06:01:16;;;;;;;16.52;12.25;;;;;;;15.34;100.00;100089.78;5441269;26;20449;-70
2024/04/10 06:03:44;;;;;;;16.75;12.52;;;;;;;14.58;100.00;100069.28;5424714;26;20011;-70
2024/04/10 06:06:13;;;;;;;16.90;11.50;;;;;;;15.65;100.00;100056.75;5426999;26;20018;-70
2024/04/10 06:08:41;;;;;;;15.25;11.38;;;;;;;15.74;100.00;100101.63;5429094;26;20486;-73
2024/04/10 06:11:07;;;;;;;13.52;11.18;;;;;;;16.20;100.00;100147.28;5434737;26;19999;-71
2024/04/10 06:13:32;;;;;;;13.75;10.65;;;;;;;16.16;100.00;100169.66;5432897;26;20014;-72
2024/04/10 06:16:03;;;;;;;12.68;9.80;;;;;;;16.06;100.00;100219.75;5439032;26;20006;-71
2024/04/10 06:18:28;;;;;;;12.05;9.57;;;;;;;16.31;100.00;100229.69;5425551;26;20080;-71
2024/04/10 06:21:00;;;;;;;12.45;8.63;;;;;;;16.63;100.00;100295.75;5424223;26;20007;-72
2024/04/10 06:23:31;;;;;;;12.43;9.10;;;;;;;17.37;100.00;100322.09;5427470;26;20035;-73
2024/04/10 06:25:57;;;;;;;10.03;8.43;;;;;;;17.42;100.00;100435.78;5429382;26;20006;-73
2024/04/10 06:28:27;;;;;;;12.15;9.63;;;;;;;17.79;100.00;100489.69;5426616;26;20031;-72
2024/04/10 06:31:00;;;;;;;11.93;9.10;;;;;;;17.51;100.00;100445.66;5426473;26;20003;-72
2024/04/10 06:33:25;;;;;;;13.45;8.10;;;;;;;18.23;100.00;100591.25;5425135;26;20019;-72
2024/04/10 06:35:51;;;;;;;10.63;6.88;;;;;;;17.73;100.00;100654.59;5425894;26;20003;-73
2024/04/10 06:38:16;;;;;;;9.95;6.88;;;;;;;18.45;100.00;100710.34;5436323;26;20342;-72
2024/04/10 06:40:42;;;;;;;11.77;7.28;;;;;;;18.74;100.00;100724.38;5423189;26;20018;-72
2024/04/10 06:43:07;;;;;;;7.90;6.13;;;;;;;19.02;100.00;100755.59;5424302;26;20461;-72
2024/04/10 06:45:34;;;;;;;8.65;5.35;;;;;;;18.81;100.00;100754.09;5439971;26;20002;-73
2024/04/10 06:47:59;;;;;;;11.95;6.05;;;;;;;17.55;100.00;100748.84;5432496;26;20014;-72
2024/04/10 06:50:25;;;;;;;7.28;5.28;;;;;;;18.50;100.00;100668.94;5431470;26;19999;-73
2024/04/10 06:52:51;;;;;;;9.40;5.03;;;;;;;18.84;100.00;100808.03;5432696;26;20018;-73
2024/04/10 06:55:17;;;;;;;5.72;4.88;;;;;;;19.01;100.00;100803.72;5434136;26;19999;-73
2024/04/10 06:57:42;;;;;;;10.20;4.40;;;;;;;19.17;100.00;100766.88;5429561;26;20384;-73
2024/04/10 07:00:14;;;;;;;6.78;3.88;;;;;;;18.90;100.00;100669.41;5424034;26;20010;-72
2024/04/10 07:02:41;;;;;;;6.20;3.88;;;;;;;19.54;100.00;100740.91;5462523;26;20436;-72
2024/04/10 07:05:06;;;;;;;4.82;4.18;;;;;;;18.81;100.00;100815.94;5499065;26;20437;-72
2024/04/10 07:07:32;;;;;;;4.07;3.33;;;;;;;19.23;100.00;100744.22;5531258;25;19998;-73
2024/04/10 07:09:58;;;;;;;4.60;2.55;;;;;;;18.50;100.00;100802.88;5526189;25;20012;-72
2024/04/10 07:12:23;;;;;;;4.97;2.70;;;;;;;19.89;100.00;100814.72;5503285;26;20017;-74
2024/04/10 07:14:49;;;;;;;5.95;3.15;;;;;;;19.71;100.00;100723.59;5505987;26;20333;-73
2024/04/10 07:17:14;;;;;;;6.13;3.33;;;;;;;19.97;100.00;100752.34;5502853;26;20013;-73
2024/04/10 07:19:39;;;;;;;5.13;3.40;;;;;;;20.59;100.00;100794.50;5473977;25;20013;-73
2024/04/10 07:22:08;;;;;;;6.22;2.78;;;;;;;19.72;100.00;100848.31;5493346;26;20010;-72
2024/04/10 07:24:34;;;;;;;4.57;2.70;;;;;;;20.16;100.00;100818.41;5504292;26;20077;-72
2024/04/10 07:26:59;;;;;;;5.78;2.70;;;;;;;19.85;100.00;100746.94;5465238;26;20002;-74
2024/04/10 07:29:25;;;;;;;7.93;4.35;;;;;;;20.47;100.00;100758.16;5497146;26;19998;-71
2024/04/10 07:31:50;;;;;;;7.03;4.40;;;;;;;20.06;100.00;100752.69;5469870;26;20002;-71
2024/04/10 07:34:17;;;;;;;5.18;3.47;;;;;;;20.62;100.00;100806.41;5473110;26;20033;-73
2024/04/10 07:36:43;;;;;;;4.55;2.60;;;;;;;20.33;100.00;100737.44;5470633;26;20012;-72
2024/04/10 07:39:08;;;;;;;6.65;2.25;;;;;;;20.39;100.00;100805.09;5468440;26;19998;-75
2024/04/10 07:41:34;;;;;;;4.70;2.40;;;;;;;20.65;100.00;100803.66;5472346;26;20022;-72
2024/04/10 07:44:00;;;;;;;7.25;2.55;;;;;;;21.50;100.00;100779.69;5504007;26;20012;-73
2024/04/10 07:46:25;;;;;;;5.40;2.47;;;;;;;21.01;100.00;100661.09;5506958;26;20014;-73
2024/04/10 07:48:55;;;;;;;4.50;2.30;;;;;;;20.66;100.00;100842.34;5474956;26;20010;-74
2024/04/10 07:51:22;;;;;;;5.38;2.45;;;;;;;21.39;100.00;100778.66;5508572;26;20013;-73
2024/04/10 07:53:48;;;;;;;4.15;2.20;;;;;;;21.82;100.00;100758.78;5472047;26;20002;-74
2024/04/10 07:56:14;;;;;;;5.10;2.30;;;;;;;22.39;100.00;100732.63;5497904;26;20002;-74
2024/04/10 07:58:39;;;;;;;5.90;2.22;;;;;;;21.84;100.00;100663.72;5463619;26;20385;-75
2024/04/10 08:01:05;;;;;;;4.57;2.67;;;;;;;22.31;100.00;100778.94;5500059;25;20036;-74
2024/04/10 08:03:31;;;;;;;4.18;2.42;;;;;;;22.02;100.00;100691.88;5506135;25;20001;-73
2024/04/10 08:05:58;;;;;;;4.45;2.00;;;;;;;20.94;100.00;100734.75;5471545;26;20073;-76
2024/04/10 08:08:27;;;;;;;5.90;2.50;;;;;;;21.73;100.00;100681.66;5496878;26;20012;-73
2024/04/10 08:11:21;;;;;;;4.57;1.80;;;;;;;21.82;100.00;100787.28;5507798;26;20454;-73
2024/04/10 08:13:47;;;;;;;4.85;1.92;;;;;;;22.24;100.00;100758.69;5457426;26;20001;-73
2024/04/10 08:16:12;;;;;;;3.95;1.90;;;;;;;22.89;100.00;100627.34;5502139;25;19994;-74
2024/04/10 08:18:39;;;;;;;2.75;1.83;;;;;;;23.12;100.00;100725.19;5468597;26;19993;-73
2024/04/10 08:21:11;;;;;;;4.25;1.90;;;;;;;23.41;100.00;100703.31;5493527;26;20127;-74
2024/04/10 08:23:38;;;;;;;2.92;1.60;;;;;;;22.84;100.00;100673.53;5507149;25;20001;-74
2024/04/10 08:26:17;;;;;;;4.35;1.60;;;;;;;21.62;100.00;100617.59;5501465;25;20002;-73
2024/04/10 08:28:50;;;;;;;2.72;1.45;;;;;;;22.64;100.00;100663.66;5509689;26;20012;-75
2024/04/10 08:31:27;;;;;;;4.03;1.60;;;;;;;24.22;100.00;100565.81;5499103;26;20017;-73
2024/04/10 08:33:53;;;;;;;3.47;1.70;;;;;;;24.06;100.00;100571.31;5502098;25;20012;-73
2024/04/10 08:36:20;;;;;;;6.75;1.75;;;;;;;23.36;100.00;100692.41;5468146;26;20002;-73
2024/04/10 08:38:46;;;;;;;7.25;1.73;;;;;;;23.25;100.00;100689.69;5504674;26;20033;-73
2024/04/10 08:41:18;;;;;;;3.05;1.27;;;;;;;23.56;100.00;100689.25;5508091;25;20432;-73
2024/04/10 08:43:46;;;;;;;4.25;1.20;;;;;;;23.37;100.00;100631.78;5474914;26;20349;-73
2024/04/10 08:46:12;;;;;;;4.03;1.35;;;;;;;23.20;100.00;100671.00;5507572;25;20012;-72
2024/04/10 08:48:40;;;;;;;2.53;1.30;;;;;;;24.11;100.00;100633.38;5472113;26;20077;-73
2024/04/10 08:51:10;;;;;;;2.55;1.20;;;;;;;23.88;100.00;100643.63;5500262;26;20338;-75
2024/04/10 08:53:42;;;;;;;6.60;1.60;;;;;;;23.95;100.00;100521.88;5496365;26;20142;-74
2024/04/10 08:56:12;;;;;;;4.85;1.40;;;;;;;24.05;100.00;100554.91;5473741;26;20314;-73
2024/04/10 08:58:37;;;;;;;3.40;1.40;;;;;;;24.35;100.00;100606.38;5496684;26;20021;-74
2024/04/10 09:01:04;;;;;;;3.53;1.52;;;;;;;23.66;100.00;100573.38;5471608;26;20002;-74
2024/04/10 09:03:30;;;;;;;6.18;1.55;;;;;;;25.18;100.00;100625.97;5494381;26;20029;-74
2024/04/10 09:06:02;;;;;;;4.60;1.40;;;;;;;25.49;100.00;100593.97;5506327;26;20013;-73
2024/04/10 09:08:28;;;;;;;3.75;1.50;;;;;;;24.89;100.00;100546.72;5475697;26;20495;-73
2024/04/10 09:10:54;;;;;;;3.58;1.40;;;;;;;24.61;100.00;100615.66;5502205;26;20016;-73
2024/04/10 09:13:19;;;;;;;3.15;1.40;;;;;;;24.37;100.00;100643.47;5534258;25;19998;-74
2024/04/10 09:15:44;;;;;;;2.85;1.50;;;;;;;25.12;100.00;100625.59;5479634;26;20040;-75
2024/04/10 09:18:10;;;;;;;6.70;1.45;;;;;;;25.14;100.00;100530.84;5494374;26;20013;-74
2024/04/10 09:20:35;;;;;;;4.80;1.30;;;;;;;24.82;100.00;100477.91;5539591;25;20033;-74
2024/04/10 09:23:06;;;;;;;3.72;1.50;;;;;;;25.23;100.00;100524.06;5532632;25;20002;-73
2024/04/10 09:25:33;;;;;;;3.85;1.30;;;;;;;25.68;100.00;100504.75;5469907;26;20010;-74
2024/04/10 09:28:06;;;;;;;3.50;1.40;;;;;;;25.48;100.00;100605.34;5502436;26;19998;-74
2024/04/10 09:30:33;;;;;;;3.50;1.58;;;;;;;25.61;100.00;100593.00;5472399;26;20136;-74
2024/04/10 09:33:00;;;;;;;4.35;1.63;;;;;;;25.28;100.00;100611.28;5506291;26;20005;-75
2024/04/10 09:35:26;;;;;;;4.39;1.34;;;;;;;25.00;100.00;100543.31;5143759;25;10000852;-73
2024/04/10 09:37:55;;;;;;;3.63;1.48;;;;;;;24.87;100.00;100473.16;5495882;26;19998;-77
2024/04/10 09:40:23;;;;;;;4.72;1.60;;;;;;;25.42;100.00;100501.66;5494437;26;20066;-74
2024/04/10 09:42:49;;;;;;;3.67;1.77;;;;;;;25.17;100.00;100576.63;5498935;26;20482;-72
2024/04/10 09:45:20;;;;;;;2.30;1.58;;;;;;;24.91;100.00;100518.81;5461454;26;20005;-73
2024/04/10 09:47:46;;;;;;;5.18;2.00;;;;;;;25.50;100.00;100579.19;5468587;26;19993;-72
2024/04/10 09:50:17;;;;;;;6.25;1.35;;;;;;;25.46;100.00;100562.16;5507228;25;20547;-72
2024/04/10 09:52:45;;;;;;;3.25;1.70;;;;;;;25.24;100.00;100531.75;5495544;26;19997;-77
2024/04/10 09:55:13;;;;;;;3.28;1.50;;;;;;;25.96;100.00;100573.69;5518822;25;20009;-71
2024/04/10 09:57:42;;;;;;;3.55;1.73;;;;;;;26.32;100.00;100539.38;5498181;26;20009;-71
2024/04/10 10:00:09;;;;;;;2.42;1.75;;;;;;;25.93;100.00;100504.38;5474906;26;20002;-74
2024/04/10 10:02:34;;;;;;;5.15;1.58;;;;;;;25.38;100.00;100608.78;5500131;26;19998;-71
2024/04/10 10:05:00;;;;;;;2.60;1.33;;;;;;;25.24;100.00;100531.75;5506278;25;20015;-71
2024/04/10 10:07:25;;;;;;;3.55;1.42;;;;;;;25.75;100.00;100534.59;5473754;26;19998;-72
2024/04/10 10:09:52;;;;;;;3.65;1.30;;;;;;;25.10;100.00;100578.88;5476816;26;20366;-72
2024/04/10 10:12:25;;;;;;;7.38;1.70;;;;;;;26.07;100.00;100482.41;5531970;25;20493;-72
2024/04/10 10:14:51;;;;;;;3.13;1.75;;;;;;;26.79;100.00;100520.50;5507137;26;20351;-72
2024/04/10 10:17:26;;;;;;;4.85;1.45;;;;;;;27.00;100.00;100547.34;5476124;26;20001;-72
2024/04/10 10:19:52;;;;;;;2.92;1.30;;;;;;;25.76;100.00;100590.94;5501297;26;20451;-72
2024/04/10 10:22:18;;;;;;;4.63;1.88;;;;;;;24.87;100.00;100468.78;5472005;26;20038;-73
2024/04/10 10:24:43;;;;;;;5.57;1.60;;;;;;;26.74;100.00;100527.09;5499669;26;20009;-72
2024/04/10 10:27:09;;;;;;;4.38;1.30;;;;;;;25.26;100.00;100630.56;5471008;26;20320;-71
2024/04/10 10:29:36;;;;;;;2.47;1.17;;;;;;;26.50;100.00;100483.03;5468691;26;20002;-71
2024/04/10 10:32:05;;;;;;;2.55;1.33;;;;;;;26.35;100.00;100502.56;5465583;26;20011;-71
2024/04/10 10:34:31;;;;;;;3.60;1.40;;;;;;;26.38;100.00;100482.31;5469304;26;20532;-72
2024/04/10 10:37:06;;;;;;;3.60;1.52;;;;;;;25.68;100.00;100484.75;5477969;26;20005;-74
2024/04/10 10:39:41;;;;;;;2.47;1.20;;;;;;;25.52;100.00;100501.75;5474260;26;20336;-73
2024/04/10 10:42:06;;;;;;;2.35;1.50;;;;;;;26.57;100.00;100469.31;5473414;26;20005;-72
2024/04/10 10:44:32;;;;;;;2.42;1.38;;;;;;;26.95;100.00;100455.56;5465661;26;20002;-72
2024/04/10 10:46:58;;;;;;;6.18;1.42;;;;;;;26.22;100.00;100586.25;5492803;26;20002;-72
2024/04/10 10:49:27;;;;;;;2.60;1.23;;;;;;;26.51;100.00;100565.53;5460443;26;20009;-73
2024/04/10 10:51:54;;;;;;;4.72;1.77;;;;;;;26.28;100.00;100470.16;5476486;26;20316;-73
2024/04/10 10:54:20;;;;;;;5.95;1.80;;;;;;;26.49;100.00;100576.09;5469519;25;20890;-71
2024/04/10 10:56:45;;;;;;;2.28;1.50;;;;;;;26.51;100.00;100557.72;5504063;26;19994;-72
2024/04/10 10:59:12;;;;;;;5.60;1.67;;;;;;;26.80;100.00;100543.03;5498040;25;20016;-72
2024/04/10 11:01:37;;;;;;;3.35;1.60;;;;;;;26.33;100.00;100561.88;5505463;26;20241;-72
2024/04/10 11:04:10;;;;;;;6.22;1.60;;;;;;;26.31;100.00;100514.22;5500023;26;20016;-73
2024/04/10 11:06:37;;;;;;;4.05;1.80;;;;;;;26.21;100.00;100587.19;5467205;26;20002;-71
2024/04/10 11:09:09;;;;;;;2.17;1.50;;;;;;;26.54;100.00;100484.41;5500318;26;20002;-72
2024/04/10 11:11:38;;;;;;;3.60;1.98;;;;;;;26.69;100.00;100535.28;5500919;26;19998;-71
2024/04/10 11:14:04;;;;;;;5.53;1.77;;;;;;;26.34;100.00;100551.31;5459785;26;20322;-71
2024/04/10 11:16:34;;;;;;;3.95;1.40;;;;;;;27.30;100.00;100521.16;5506009;26;20037;-73